createdAt,value
2023-03-24T00:02:00.140Z,7.28
2023-03-24T00:04:32.995Z,6.15
2023-03-24T00:07:05.124Z,7.92
2023-03-24T00:09:37.705Z,7.37
2023-03-24T00:12:11.733Z,7.30
2023-03-24T00:14:45.588Z,7.60
2023-03-24T00:17:19.174Z,8.13
2023-03-24T00:19:51.335Z,7.60
2023-03-24T00:22:23.513Z,7.40
2023-03-24T00:24:55.980Z,7.67
2023-03-24T00:27:29.590Z,7.50
2023-03-24T00:30:03.488Z,7.28
2023-03-24T00:32:38.403Z,7.03
2023-03-24T00:35:12.998Z,6.53
2023-03-24T00:37:46.077Z,8.10
2023-03-24T00:40:21.014Z,7.17
2023-03-24T00:42:53.400Z,7.35
2023-03-24T00:45:26.203Z,7.65
2023-03-24T00:47:58.556Z,7.60
2023-03-24T00:50:32.217Z,7.92
2023-03-24T00:53:04.335Z,7.00
2023-03-24T00:55:38.135Z,7.80
2023-03-24T00:58:10.377Z,7.60
2023-03-24T01:00:42.752Z,7.12
2023-03-24T01:03:15.556Z,8.23
2023-03-24T01:05:48.630Z,7.30
2023-03-24T01:08:21.801Z,7.70
2023-03-24T01:10:54.253Z,7.85
2023-03-24T01:13:29.419Z,7.83
2023-03-24T01:16:01.441Z,6.80
2023-03-24T01:18:35.052Z,7.37
2023-03-24T01:21:07.553Z,8.05
2023-03-24T01:23:42.069Z,8.28
2023-03-24T01:26:14.180Z,8.53
2023-03-24T01:28:46.236Z,8.43
2023-03-24T01:31:18.215Z,7.47
2023-03-24T01:33:50.497Z,8.23
2023-03-24T01:36:22.764Z,6.65
2023-03-24T01:38:54.753Z,9.18
2023-03-24T01:41:28.976Z,9.03
2023-03-24T01:44:01.676Z,8.73
2023-03-24T01:46:34.308Z,9.13
2023-03-24T01:49:08.694Z,8.90
2023-03-24T01:51:46.261Z,8.63
2023-03-24T01:54:45.248Z,8.45
2023-03-24T01:57:29.892Z,8.08
2023-03-24T02:00:05.321Z,8.08
2023-03-24T02:02:49.764Z,7.67
2023-03-24T02:05:26.593Z,8.58
2023-03-24T02:08:07.478Z,8.05
2023-03-24T02:10:39.883Z,8.45
2023-03-24T02:13:12.497Z,7.60
2023-03-24T02:15:51.160Z,8.30
2023-03-24T02:18:29.138Z,8.60
2023-03-24T02:21:13.395Z,7.90
2023-03-24T02:24:00.551Z,7.35
2023-03-24T02:26:47.382Z,7.78
2023-03-24T02:29:47.858Z,7.25
2023-03-24T02:32:46.651Z,7.90
2023-03-24T02:35:21.603Z,8.23
2023-03-24T02:38:05.458Z,7.80
2023-03-24T02:40:40.585Z,7.75
2023-03-24T02:43:38.141Z,7.83
2023-03-24T02:46:22.091Z,8.20
2023-03-24T02:49:13.486Z,8.50
2023-03-24T02:52:06.785Z,7.75
2023-03-24T02:54:55.027Z,8.10
2023-03-24T02:57:41.611Z,8.25
2023-03-24T03:00:42.181Z,7.47
2023-03-24T03:03:24.411Z,7.95
2023-03-24T03:06:00.799Z,7.80
2023-03-24T03:08:35.177Z,7.97
2023-03-24T03:11:09.830Z,7.78
2023-03-24T03:13:47.398Z,7.35
2023-03-24T03:16:28.331Z,8.13
2023-03-24T03:19:03.588Z,7.15
2023-03-24T03:21:39.261Z,8.35
2023-03-24T03:24:15.617Z,8.08
2023-03-24T03:26:49.649Z,8.03
2023-03-24T03:29:24.152Z,7.55
2023-03-24T03:35:09.324Z,8.40
2023-03-24T03:38:04.300Z,8.33
2023-03-24T03:40:56.948Z,8.20
2023-03-24T03:43:33.179Z,8.78
2023-03-24T03:46:09.272Z,9.28
2023-03-24T03:48:42.721Z,8.83
2023-03-24T03:51:16.349Z,9.30
2023-03-24T03:53:53.298Z,9.30
2023-03-24T03:56:29.435Z,9.88
2023-03-24T03:59:08.653Z,9.43
2023-03-24T04:01:42.397Z,10.03
2023-03-24T04:04:28.106Z,11.00
2023-03-24T04:07:28.632Z,12.47
2023-03-24T04:10:08.713Z,11.10
2023-03-24T04:13:05.739Z,10.75
2023-03-24T04:15:57.920Z,12.50
2023-03-24T04:19:07.108Z,11.25
2023-03-24T04:21:52.045Z,12.58
2023-03-24T04:24:36.656Z,12.25
2023-03-24T04:27:25.986Z,12.25
2023-03-24T04:30:23.640Z,12.85
2023-03-24T04:33:01.742Z,14.03
2023-03-24T04:35:42.654Z,12.93
2023-03-24T04:38:26.563Z,12.88
2023-03-24T04:41:02.068Z,13.40
2023-03-24T04:43:38.375Z,12.95
2023-03-24T04:46:12.697Z,15.13
2023-03-24T04:48:52.794Z,14.28
2023-03-24T04:51:30.007Z,16.42
2023-03-24T04:54:08.325Z,14.40
2023-03-24T04:56:56.037Z,14.95
2023-03-24T04:59:31.429Z,16.32
2023-03-24T05:02:04.628Z,16.17
2023-03-24T05:04:38.536Z,13.30
2023-03-24T05:07:20.270Z,14.45
2023-03-24T05:09:54.332Z,15.80
2023-03-24T05:12:26.708Z,19.65
2023-03-24T05:15:01.320Z,16.35
2023-03-24T05:17:34.439Z,16.45
2023-03-24T05:20:11.912Z,18.35
2023-03-24T05:22:46.821Z,17.90
2023-03-24T05:27:53.729Z,16.77
2023-03-24T05:30:27.820Z,17.15
2023-03-24T05:35:34.548Z,15.18
2023-03-24T05:38:06.962Z,15.03
2023-03-24T05:40:39.505Z,16.67
2023-03-24T05:43:16.791Z,18.15
2023-03-24T05:45:50.970Z,14.85
2023-03-24T05:48:31.077Z,17.65
2023-03-24T05:51:05.347Z,15.95
2023-03-24T05:53:37.780Z,15.10
2023-03-24T05:56:15.061Z,18.35
2023-03-24T05:59:06.051Z,16.62
2023-03-24T06:01:45.673Z,16.20
2023-03-24T06:04:21.071Z,15.45
2023-03-24T06:06:56.040Z,16.07
2023-03-24T06:09:33.118Z,16.27
2023-03-24T06:12:07.519Z,15.75
2023-03-24T06:14:41.464Z,16.32
2023-03-24T06:17:15.881Z,16.17
2023-03-24T06:19:50.239Z,15.60
2023-03-24T06:22:43.517Z,16.73
2023-03-24T06:25:24.457Z,16.42
2023-03-24T06:27:59.973Z,15.83
2023-03-24T06:30:32.424Z,13.70
2023-03-24T06:33:07.107Z,15.28
2023-03-24T06:35:39.803Z,15.80
2023-03-24T06:38:14.426Z,16.37
2023-03-24T06:40:47.132Z,14.50
2023-03-24T06:43:19.834Z,15.23
2023-03-24T06:45:52.466Z,18.17
2023-03-24T06:48:26.791Z,13.18
2023-03-24T06:51:02.067Z,14.28
2023-03-24T06:53:34.640Z,14.13
2023-03-24T06:56:07.781Z,13.95
2023-03-24T07:01:15.081Z,13.22
2023-03-24T07:04:01.462Z,12.35
2023-03-24T07:06:50.918Z,12.07
2023-03-24T07:09:14.726Z,13.03
2023-03-24T07:11:47.428Z,9.13
2023-03-24T07:14:22.268Z,13.05
2023-03-24T07:16:55.202Z,17.30
2023-03-24T07:19:31.381Z,12.78
2023-03-24T07:22:04.804Z,11.03
2023-03-24T07:24:38.688Z,14.68
2023-03-24T07:27:12.649Z,11.20
2023-03-24T07:29:45.303Z,9.30
2023-03-24T07:32:25.061Z,8.90
2023-03-24T07:34:58.425Z,8.50
2023-03-24T07:37:30.980Z,13.38
2023-03-24T07:40:04.828Z,9.90
2023-03-24T07:42:37.033Z,8.78
2023-03-24T07:45:27.631Z,9.25
2023-03-24T07:48:04.924Z,8.65
2023-03-24T07:50:40.414Z,9.68
2023-03-24T07:53:18.834Z,8.83
2023-03-24T07:55:51.338Z,8.50
2023-03-24T07:58:26.849Z,9.33
2023-03-24T08:01:14.164Z,8.10
2023-03-24T08:03:49.550Z,8.23
2023-03-24T08:06:23.692Z,6.85
2023-03-24T08:08:57.036Z,8.05
2023-03-24T08:11:30.137Z,6.78
2023-03-24T08:14:03.432Z,8.18
2023-03-24T08:16:36.669Z,7.75
2023-03-24T08:19:09.411Z,7.50
2023-03-24T08:21:41.829Z,7.03
2023-03-24T08:24:13.953Z,6.75
2023-03-24T08:26:46.895Z,7.60
2023-03-24T08:29:19.083Z,4.75
2023-03-24T08:31:51.163Z,6.28
2023-03-24T08:34:25.180Z,7.12
2023-03-24T08:36:57.571Z,7.40
2023-03-24T08:39:31.212Z,6.17
2023-03-24T08:42:03.631Z,6.67
2023-03-24T08:44:36.067Z,6.10
2023-03-24T08:47:08.064Z,5.55
2023-03-24T08:49:40.322Z,4.78
2023-03-24T08:52:12.712Z,7.55
2023-03-24T08:54:44.885Z,9.75
2023-03-24T08:57:18.063Z,7.35
2023-03-24T08:59:51.511Z,5.80
2023-03-24T09:02:24.222Z,8.83
2023-03-24T09:04:56.928Z,6.10
2023-03-24T09:07:28.938Z,7.12
2023-03-24T09:10:01.197Z,7.50
2023-03-24T09:12:33.604Z,6.12
2023-03-24T09:15:10.100Z,5.15
2023-03-24T09:17:43.868Z,4.80
2023-03-24T09:20:17.782Z,4.50
2023-03-24T09:22:50.161Z,4.57
2023-03-24T09:25:23.537Z,5.60
2023-03-24T09:27:57.171Z,4.72
2023-03-24T09:30:31.319Z,5.12
2023-03-24T09:33:05.267Z,3.92
2023-03-24T09:35:37.529Z,5.30
2023-03-24T09:38:11.221Z,4.15
2023-03-24T09:40:44.290Z,4.87
2023-03-24T09:43:24.981Z,4.17
2023-03-24T09:45:59.958Z,4.00
2023-03-24T09:48:44.244Z,3.67
2023-03-24T09:51:25.074Z,3.45
2023-03-24T09:54:03.081Z,3.65
2023-03-24T09:56:41.135Z,3.92
2023-03-24T09:59:35.987Z,4.35
2023-03-24T10:02:20.439Z,3.85
2023-03-24T10:04:52.669Z,3.12
2023-03-24T10:07:36.288Z,3.98
2023-03-24T10:10:16.947Z,3.15
2023-03-24T10:12:50.992Z,4.67
2023-03-24T10:15:37.364Z,4.80
2023-03-24T10:18:32.802Z,3.90
2023-03-24T10:21:13.962Z,2.98
2023-03-24T10:23:57.846Z,27.58
2023-03-24T10:26:50.327Z,19.77
2023-03-24T10:29:37.071Z,4.12
2023-03-24T10:32:24.478Z,4.17
2023-03-24T10:35:04.120Z,4.17
2023-03-24T10:37:36.968Z,4.87
2023-03-24T10:40:18.565Z,3.85
2023-03-24T10:43:06.940Z,3.72
2023-03-24T10:45:30.698Z,4.17
2023-03-24T10:48:04.643Z,4.65
2023-03-24T10:50:38.325Z,2.50
2023-03-24T10:53:18.786Z,2.58
2023-03-24T10:55:51.181Z,3.42
2023-03-24T10:58:38.049Z,2.92
2023-03-24T11:01:27.534Z,2.90
2023-03-24T11:04:07.687Z,1.77
2023-03-24T11:06:40.057Z,3.60
2023-03-24T11:09:18.290Z,4.00
2023-03-24T11:11:51.792Z,3.00
2023-03-24T11:14:27.265Z,3.30
2023-03-24T11:17:16.360Z,3.95
2023-03-24T11:19:56.787Z,3.25
2023-03-24T11:22:28.737Z,2.58
2023-03-24T11:25:01.290Z,3.20
2023-03-24T11:27:34.349Z,2.95
2023-03-24T11:30:08.473Z,2.77
2023-03-24T11:32:42.401Z,2.22
2023-03-24T11:35:17.998Z,8.55
2023-03-24T11:37:50.408Z,3.00
2023-03-24T11:40:25.552Z,2.87
2023-03-24T11:43:00.204Z,3.25
2023-03-24T11:45:44.209Z,3.00
2023-03-24T11:48:19.575Z,2.80
2023-03-24T11:50:53.862Z,3.10
2023-03-24T11:53:29.424Z,2.92
2023-03-24T11:56:16.191Z,2.77
2023-03-24T11:58:51.411Z,2.72
2023-03-24T12:01:29.307Z,3.22
2023-03-24T12:04:21.214Z,2.83
2023-03-24T12:07:14.790Z,2.80
2023-03-24T12:09:58.705Z,2.27
2023-03-24T12:12:45.191Z,2.58
2023-03-24T12:18:15.841Z,1.70
2023-03-24T12:21:10.026Z,4.55
2023-03-24T12:23:54.179Z,2.93
2023-03-24T12:26:34.187Z,2.30
2023-03-24T12:29:24.379Z,3.20
2023-03-24T12:32:18.963Z,2.52
2023-03-24T12:35:03.077Z,2.90
2023-03-24T12:37:47.454Z,2.60
2023-03-24T12:40:37.729Z,2.00
2023-03-24T12:43:30.925Z,2.47
2023-03-24T12:46:17.835Z,2.37
2023-03-24T12:49:00.064Z,2.67
2023-03-24T12:51:54.603Z,2.72
2023-03-24T12:54:35.274Z,2.23
2023-03-24T12:57:10.272Z,2.65
2023-03-24T12:59:47.658Z,2.62
2023-03-24T13:02:46.547Z,2.30
2023-03-24T13:05:21.720Z,2.10
2023-03-24T13:07:58.124Z,2.30
2023-03-24T13:10:32.958Z,2.83
2023-03-24T13:13:14.761Z,2.12
2023-03-24T13:15:58.683Z,2.10
2023-03-24T13:18:50.597Z,1.45
2023-03-24T13:21:29.491Z,2.15
2023-03-24T13:24:12.876Z,1.30
2023-03-24T13:27:05.803Z,1.50
2023-03-24T13:29:48.435Z,2.30
2023-03-24T13:32:26.737Z,1.60
2023-03-24T13:35:34.545Z,1.90
2023-03-24T13:38:21.984Z,1.47
2023-03-24T13:40:56.526Z,1.77
2023-03-24T13:46:10.065Z,1.75
2023-03-24T13:48:58.044Z,1.70
2023-03-24T13:51:35.323Z,1.90
2023-03-24T13:54:16.422Z,1.80
2023-03-24T13:56:57.623Z,1.92
2023-03-24T14:00:02.899Z,2.10
2023-03-24T14:02:54.234Z,21.37
2023-03-24T14:06:05.903Z,1.70
2023-03-24T14:08:56.454Z,1.92
2023-03-24T14:11:41.804Z,1.50
2023-03-24T14:14:20.740Z,1.60
2023-03-24T14:17:08.054Z,1.50
2023-03-24T14:20:05.403Z,1.60
2023-03-24T14:22:44.063Z,1.98
2023-03-24T14:25:24.926Z,1.22
2023-03-24T14:28:22.891Z,1.57
2023-03-24T14:31:16.163Z,1.60
2023-03-24T14:34:02.764Z,2.15
2023-03-24T14:36:41.242Z,2.22
2023-03-24T14:39:36.094Z,1.85
2023-03-24T14:42:30.491Z,2.50
2023-03-24T14:45:14.074Z,1.50
2023-03-24T14:47:43.352Z,1.40
2023-03-24T14:50:24.000Z,1.98
2023-03-24T14:53:01.723Z,1.22
2023-03-24T14:55:36.074Z,1.50
2023-03-24T14:58:36.060Z,1.98
2023-03-24T15:01:11.381Z,1.52
2023-03-24T15:03:48.354Z,1.30
2023-03-24T15:06:25.704Z,1.85
2023-03-24T15:09:01.354Z,1.70
2023-03-24T15:11:36.487Z,1.57
2023-03-24T15:14:16.073Z,1.62
2023-03-24T15:16:53.709Z,2.22
2023-03-24T15:19:31.528Z,1.25
2023-03-24T15:22:06.786Z,1.50
2023-03-24T15:24:40.294Z,1.52
2023-03-24T15:27:25.078Z,1.32
2023-03-24T15:30:00.413Z,1.20
2023-03-24T15:32:34.917Z,1.42
2023-03-24T15:35:09.401Z,1.37
2023-03-24T15:40:32.782Z,2.05
2023-03-24T15:43:09.838Z,1.62
2023-03-24T15:45:57.803Z,1.50
2023-03-24T15:48:26.623Z,1.20
2023-03-24T15:51:04.305Z,1.30
2023-03-24T15:53:51.683Z,1.40
2023-03-24T15:56:32.050Z,0.88
2023-03-24T15:59:13.665Z,1.45
2023-03-24T16:01:46.328Z,1.70
2023-03-24T16:04:23.451Z,1.57
2023-03-24T16:06:58.075Z,1.02
2023-03-24T16:12:05.843Z,1.40
2023-03-24T16:14:38.877Z,1.22
2023-03-24T16:17:11.352Z,1.30
2023-03-24T16:19:43.441Z,1.00
2023-03-24T16:22:15.485Z,1.55
2023-03-24T16:24:47.700Z,1.37
2023-03-24T16:27:20.046Z,1.82
2023-03-24T16:29:52.757Z,1.17
2023-03-24T16:32:24.987Z,1.67
2023-03-24T16:34:57.157Z,1.50
2023-03-24T16:37:29.175Z,1.42
2023-03-24T16:40:03.582Z,1.25
2023-03-24T16:42:34.587Z,1.37
2023-03-24T16:45:07.447Z,1.47
2023-03-24T16:47:39.972Z,1.52
2023-03-24T16:50:38.783Z,1.55
2023-03-24T16:53:11.163Z,1.70
2023-03-24T16:55:45.311Z,1.37
2023-03-24T16:58:18.389Z,1.72
2023-03-24T17:00:51.849Z,1.35
2023-03-24T17:03:24.433Z,1.17
2023-03-24T17:05:57.167Z,1.25
2023-03-24T17:08:30.219Z,1.23
2023-03-24T17:11:03.008Z,1.60
2023-03-24T17:13:35.479Z,1.40
2023-03-24T17:16:09.937Z,1.40
2023-03-24T17:18:42.261Z,1.42
2023-03-24T17:21:17.596Z,1.37
2023-03-24T17:23:51.051Z,1.77
2023-03-24T17:26:24.181Z,1.40
2023-03-24T17:28:56.812Z,1.90
2023-03-24T17:31:29.093Z,2.08
2023-03-24T17:34:08.537Z,2.22
2023-03-24T17:36:35.156Z,2.12
2023-03-24T17:39:08.924Z,2.02
2023-03-24T17:41:42.175Z,2.00
2023-03-24T17:44:14.331Z,2.45
2023-03-24T17:46:46.529Z,1.40
2023-03-24T17:49:18.639Z,1.37
2023-03-24T17:51:50.847Z,1.20
2023-03-24T17:54:23.095Z,1.55
2023-03-24T17:56:55.093Z,1.30
2023-03-24T17:59:27.186Z,2.00
2023-03-24T18:01:59.357Z,1.25
2023-03-24T18:04:33.121Z,1.20
2023-03-24T18:07:07.730Z,2.00
2023-03-24T18:09:44.389Z,2.30
2023-03-24T18:12:16.612Z,2.00
2023-03-24T18:14:48.762Z,2.60
2023-03-24T18:17:21.987Z,3.37
2023-03-24T18:19:54.264Z,1.67
2023-03-24T18:22:27.713Z,2.12
2023-03-24T18:25:01.415Z,2.40
2023-03-24T18:27:33.796Z,2.37
2023-03-24T18:30:07.724Z,2.33
2023-03-24T18:32:40.797Z,2.12
2023-03-24T18:35:17.852Z,1.90
2023-03-24T18:37:49.905Z,2.00
2023-03-24T18:40:22.080Z,2.55
2023-03-24T18:42:54.030Z,2.55
2023-03-24T18:45:26.442Z,2.42
2023-03-24T18:47:58.506Z,2.77
2023-03-24T18:50:30.666Z,2.40
2023-03-24T18:53:03.421Z,2.22
2023-03-24T18:55:35.778Z,2.50
2023-03-24T18:58:09.351Z,1.85
2023-03-24T19:00:43.181Z,2.10
2023-03-24T19:03:15.395Z,1.70
2023-03-24T19:05:49.716Z,2.27
2023-03-24T19:10:58.112Z,3.10
2023-03-24T19:13:30.535Z,2.60
2023-03-24T19:16:02.713Z,3.10
2023-03-24T19:18:34.930Z,2.52
2023-03-24T19:21:07.932Z,2.87
2023-03-24T19:23:40.056Z,2.90
2023-03-24T19:26:12.575Z,2.85
2023-03-24T19:28:45.018Z,2.83
2023-03-24T19:31:19.290Z,3.15
2023-03-24T19:33:52.443Z,3.25
2023-03-24T19:36:26.414Z,3.37
2023-03-24T19:38:58.322Z,4.08
2023-03-24T19:41:30.489Z,3.22
2023-03-24T19:44:02.861Z,3.50
2023-03-24T19:46:34.981Z,3.10
2023-03-24T19:49:07.165Z,4.10
2023-03-24T19:51:39.220Z,3.85
2023-03-24T19:54:11.536Z,3.60
2023-03-24T19:56:43.673Z,4.40
2023-03-24T19:59:15.877Z,3.95
2023-03-24T20:01:48.125Z,4.47
2023-03-24T20:04:20.489Z,4.65
2023-03-24T20:06:52.803Z,4.28
2023-03-24T20:09:24.896Z,5.00
2023-03-24T20:11:57.025Z,4.15
2023-03-24T20:14:47.277Z,4.40
2023-03-24T20:17:21.621Z,5.60
2023-03-24T20:22:26.097Z,4.70
2023-03-24T20:24:58.197Z,4.70
2023-03-24T20:27:30.998Z,7.83
2023-03-24T20:30:03.505Z,5.00
2023-03-24T20:32:35.998Z,4.75
2023-03-24T20:35:09.234Z,3.85
2023-03-24T20:37:41.538Z,4.25
2023-03-24T20:40:13.854Z,4.05
2023-03-24T20:42:46.188Z,4.40
2023-03-24T20:45:18.396Z,3.55
2023-03-24T20:47:50.873Z,3.77
2023-03-24T20:50:23.058Z,3.35
2023-03-24T20:52:54.978Z,4.05
2023-03-24T20:55:27.533Z,3.47
2023-03-24T20:58:01.371Z,3.30
2023-03-24T21:00:33.409Z,3.55
2023-03-24T21:03:06.263Z,3.58
2023-03-24T21:05:38.746Z,3.55
2023-03-24T21:08:10.728Z,3.75
2023-03-24T21:10:43.019Z,3.92
2023-03-24T21:13:16.958Z,3.47
2023-03-24T21:15:49.472Z,3.95
2023-03-24T21:18:22.118Z,4.40
2023-03-24T21:20:58.210Z,4.92
2023-03-24T21:23:37.986Z,4.75
2023-03-24T21:26:15.898Z,4.40
2023-03-24T21:28:47.879Z,4.53
2023-03-24T21:31:30.656Z,5.20
2023-03-24T21:34:02.644Z,4.92
2023-03-24T21:36:35.676Z,4.78
2023-03-24T21:39:09.308Z,4.80
2023-03-24T21:41:41.477Z,4.33
2023-03-24T21:44:13.533Z,5.08
2023-03-24T21:46:47.240Z,5.47
2023-03-24T21:49:19.389Z,4.67
2023-03-24T21:51:53.105Z,4.58
2023-03-24T21:54:26.922Z,4.30
2023-03-24T21:57:01.817Z,4.65
2023-03-24T21:59:34.041Z,4.40
2023-03-24T22:02:08.322Z,4.08
2023-03-24T22:04:41.823Z,4.83
2023-03-24T22:07:16.605Z,4.53
2023-03-24T22:09:50.306Z,5.22
2023-03-24T22:12:22.333Z,5.00
2023-03-24T22:14:54.375Z,4.22
2023-03-24T22:17:26.827Z,4.25
2023-03-24T22:19:59.103Z,4.10
2023-03-24T22:22:33.420Z,3.90
2023-03-24T22:25:07.246Z,4.20
2023-03-24T22:27:39.351Z,3.85
2023-03-24T22:30:13.068Z,3.60
2023-03-24T22:32:46.190Z,3.30
2023-03-24T22:35:18.533Z,4.47
2023-03-24T22:37:50.616Z,3.02
2023-03-24T22:40:22.975Z,3.83
2023-03-24T22:42:54.826Z,3.67
2023-03-24T22:45:27.174Z,2.47
2023-03-24T22:47:59.199Z,2.55
2023-03-24T22:50:31.668Z,2.62
2023-03-24T22:53:03.733Z,2.98
2023-03-24T22:55:35.847Z,2.20
2023-03-24T22:58:07.792Z,2.37
2023-03-24T23:00:41.152Z,2.52
2023-03-24T23:03:13.544Z,2.20
2023-03-24T23:05:47.165Z,2.50
2023-03-24T23:08:19.497Z,2.33
2023-03-24T23:10:51.807Z,2.42
2023-03-24T23:13:25.587Z,2.90
2023-03-24T23:15:57.819Z,2.70
2023-03-24T23:18:30.512Z,2.65
2023-03-24T23:21:11.247Z,2.17
2023-03-24T23:23:44.080Z,2.22
2023-03-24T23:26:26.505Z,2.33
2023-03-24T23:28:51.446Z,2.27
2023-03-24T23:31:26.338Z,2.40
2023-03-24T23:33:59.338Z,2.15
2023-03-24T23:36:32.986Z,2.40
2023-03-24T23:39:05.538Z,2.40
2023-03-24T23:41:37.708Z,2.50
2023-03-24T23:44:11.537Z,2.40
2023-03-24T23:46:43.549Z,2.52
2023-03-24T23:49:15.883Z,2.50
2023-03-24T23:51:47.892Z,2.40
2023-03-24T23:54:20.078Z,2.55
2023-03-24T23:56:53.909Z,2.37
2023-03-24T23:59:26.234Z,2.30
